sensor_id;sensor_type;location;lat;lon;timestamp;P1;durP1;ratioP1;P2;durP2;ratioP2
37355;SDS011;48747;50.250;18.848;2022-07-29T00:01:13;9.78;;;4.87;;
37355;SDS011;48747;50.250;18.848;2022-07-29T00:03:16;9.58;;;4.80;;
37355;SDS011;48747;50.250;18.848;2022-07-29T00:05:19;9.40;;;4.47;;
37355;SDS011;48747;50.250;18.848;2022-07-29T00:07:22;9.63;;;4.92;;
37355;SDS011;48747;50.250;18.848;2022-07-29T00:09:25;9.28;;;5.58;;
37355;SDS011;48747;50.250;18.848;2022-07-29T00:11:28;10.00;;;5.37;;
37355;SDS011;48747;50.250;18.848;2022-07-29T00:13:34;11.48;;;4.85;;
37355;SDS011;48747;50.250;18.848;2022-07-29T00:15:37;10.40;;;4.47;;
37355;SDS011;48747;50.250;18.848;2022-07-29T00:17:41;10.08;;;4.47;;
37355;SDS011;48747;50.250;18.848;2022-07-29T00:19:44;9.50;;;5.35;;
37355;SDS011;48747;50.250;18.848;2022-07-29T00:21:47;7.85;;;4.75;;
37355;SDS011;48747;50.250;18.848;2022-07-29T00:23:50;10.20;;;3.87;;
37355;SDS011;48747;50.250;18.848;2022-07-29T00:25:53;10.85;;;4.47;;
37355;SDS011;48747;50.250;18.848;2022-07-29T00:27:56;8.90;;;4.53;;
37355;SDS011;48747;50.250;18.848;2022-07-29T00:29:59;9.38;;;4.62;;
37355;SDS011;48747;50.250;18.848;2022-07-29T00:32:10;7.90;;;4.42;;
37355;SDS011;48747;50.250;18.848;2022-07-29T00:34:11;5.85;;;4.15;;
37355;SDS011;48747;50.250;18.848;2022-07-29T00:36:32;13.22;;;4.75;;
37355;SDS011;48747;50.250;18.848;2022-07-29T00:38:35;11.12;;;4.20;;
37355;SDS011;48747;50.250;18.848;2022-07-29T00:40:38;10.93;;;4.83;;
37355;SDS011;48747;50.250;18.848;2022-07-29T00:42:43;6.55;;;3.80;;
37355;SDS011;48747;50.250;18.848;2022-07-29T00:44:50;11.68;;;4.12;;
37355;SDS011;48747;50.250;18.848;2022-07-29T00:46:53;7.47;;;3.87;;
37355;SDS011;48747;50.250;18.848;2022-07-29T00:48:56;9.10;;;4.50;;
37355;SDS011;48747;50.250;18.848;2022-07-29T00:51:01;8.68;;;3.70;;
37355;SDS011;48747;50.250;18.848;2022-07-29T00:53:06;7.22;;;3.50;;
37355;SDS011;48747;50.250;18.848;2022-07-29T00:55:12;11.18;;;4.03;;
37355;SDS011;48747;50.250;18.848;2022-07-29T00:57:17;6.67;;;3.80;;
37355;SDS011;48747;50.250;18.848;2022-07-29T00:59:20;5.08;;;3.10;;
37355;SDS011;48747;50.250;18.848;2022-07-29T01:01:23;7.42;;;3.67;;
37355;SDS011;48747;50.250;18.848;2022-07-29T01:03:26;7.97;;;3.52;;
37355;SDS011;48747;50.250;18.848;2022-07-29T01:05:29;7.15;;;3.50;;
37355;SDS011;48747;50.250;18.848;2022-07-29T01:07:33;8.03;;;3.12;;
37355;SDS011;48747;50.250;18.848;2022-07-29T01:09:38;4.95;;;3.25;;
37355;SDS011;48747;50.250;18.848;2022-07-29T01:11:43;7.28;;;3.30;;
37355;SDS011;48747;50.250;18.848;2022-07-29T01:13:54;9.48;;;3.83;;
37355;SDS011;48747;50.250;18.848;2022-07-29T01:15:54;7.70;;;3.47;;
37355;SDS011;48747;50.250;18.848;2022-07-29T01:18:01;7.83;;;3.60;;
37355;SDS011;48747;50.250;18.848;2022-07-29T01:20:25;8.18;;;4.15;;
37355;SDS011;48747;50.250;18.848;2022-07-29T01:29:49;8.68;;;3.20;;
37355;SDS011;48747;50.250;18.848;2022-07-29T01:31:59;9.95;;;3.27;;
37355;SDS011;48747;50.250;18.848;2022-07-29T01:34:04;6.08;;;3.58;;
37355;SDS011;48747;50.250;18.848;2022-07-29T01:36:27;8.68;;;3.22;;
37355;SDS011;48747;50.250;18.848;2022-07-29T01:38:27;5.12;;;3.27;;
37355;SDS011;48747;50.250;18.848;2022-07-29T01:42:43;5.80;;;2.98;;
37355;SDS011;48747;50.250;18.848;2022-07-29T01:47:20;5.95;;;3.37;;
37355;SDS011;48747;50.250;18.848;2022-07-29T01:49:27;6.12;;;3.40;;
37355;SDS011;48747;50.250;18.848;2022-07-29T01:51:32;5.95;;;2.90;;
37355;SDS011;48747;50.250;18.848;2022-07-29T01:56:06;4.35;;;2.62;;
37355;SDS011;48747;50.250;18.848;2022-07-29T01:58:14;7.42;;;3.20;;
37355;SDS011;48747;50.250;18.848;2022-07-29T02:00:19;5.83;;;3.00;;
37355;SDS011;48747;50.250;18.848;2022-07-29T02:02:23;4.92;;;2.77;;
37355;SDS011;48747;50.250;18.848;2022-07-29T02:04:28;3.98;;;2.67;;
37355;SDS011;48747;50.250;18.848;2022-07-29T02:06:33;6.00;;;2.70;;
37355;SDS011;48747;50.250;18.848;2022-07-29T02:08:40;4.45;;;2.40;;
37355;SDS011;48747;50.250;18.848;2022-07-29T02:10:45;5.97;;;2.72;;
37355;SDS011;48747;50.250;18.848;2022-07-29T02:12:56;7.72;;;2.65;;
37355;SDS011;48747;50.250;18.848;2022-07-29T02:14:56;4.03;;;2.45;;
37355;SDS011;48747;50.250;18.848;2022-07-29T02:17:01;5.60;;;2.92;;
37355;SDS011;48747;50.250;18.848;2022-07-29T02:19:05;6.33;;;3.00;;
37355;SDS011;48747;50.250;18.848;2022-07-29T02:21:10;4.92;;;2.47;;
37355;SDS011;48747;50.250;18.848;2022-07-29T02:23:14;7.08;;;3.00;;
37355;SDS011;48747;50.250;18.848;2022-07-29T02:25:21;4.42;;;2.45;;
37355;SDS011;48747;50.250;18.848;2022-07-29T02:27:26;5.62;;;2.25;;
37355;SDS011;48747;50.250;18.848;2022-07-29T02:29:30;7.85;;;2.30;;
37355;SDS011;48747;50.250;18.848;2022-07-29T02:31:38;4.53;;;2.50;;
37355;SDS011;48747;50.250;18.848;2022-07-29T02:33:44;7.75;;;2.20;;
37355;SDS011;48747;50.250;18.848;2022-07-29T02:35:49;4.00;;;2.02;;
37355;SDS011;48747;50.250;18.848;2022-07-29T02:37:53;4.17;;;2.40;;
37355;SDS011;48747;50.250;18.848;2022-07-29T02:40:15;4.20;;;2.40;;
37355;SDS011;48747;50.250;18.848;2022-07-29T02:42:19;4.95;;;2.20;;
37355;SDS011;48747;50.250;18.848;2022-07-29T02:44:25;6.78;;;2.60;;
37355;SDS011;48747;50.250;18.848;2022-07-29T02:46:32;4.25;;;2.10;;
37355;SDS011;48747;50.250;18.848;2022-07-29T02:48:38;5.42;;;2.22;;
37355;SDS011;48747;50.250;18.848;2022-07-29T02:50:50;5.10;;;2.27;;
37355;SDS011;48747;50.250;18.848;2022-07-29T02:52:58;5.45;;;2.42;;
37355;SDS011;48747;50.250;18.848;2022-07-29T02:55:23;6.92;;;2.60;;
37355;SDS011;48747;50.250;18.848;2022-07-29T02:59:52;4.12;;;2.75;;
37355;SDS011;48747;50.250;18.848;2022-07-29T03:01:58;4.72;;;2.35;;
37355;SDS011;48747;50.250;18.848;2022-07-29T03:04:03;5.03;;;2.50;;
37355;SDS011;48747;50.250;18.848;2022-07-29T03:06:07;5.83;;;2.60;;
37355;SDS011;48747;50.250;18.848;2022-07-29T03:08:12;4.70;;;2.83;;
37355;SDS011;48747;50.250;18.848;2022-07-29T03:10:17;4.17;;;2.40;;
37355;SDS011;48747;50.250;18.848;2022-07-29T03:12:20;5.90;;;2.58;;
37355;SDS011;48747;50.250;18.848;2022-07-29T03:14:31;5.37;;;2.87;;
37355;SDS011;48747;50.250;18.848;2022-07-29T03:16:30;7.30;;;2.50;;
37355;SDS011;48747;50.250;18.848;2022-07-29T03:18:33;2.70;;;2.17;;
37355;SDS011;48747;50.250;18.848;2022-07-29T03:20:38;6.95;;;2.70;;
37355;SDS011;48747;50.250;18.848;2022-07-29T03:22:42;6.20;;;2.40;;
37355;SDS011;48747;50.250;18.848;2022-07-29T03:24:53;8.28;;;2.30;;
37355;SDS011;48747;50.250;18.848;2022-07-29T03:26:52;4.58;;;1.95;;
37355;SDS011;48747;50.250;18.848;2022-07-29T03:28:59;6.70;;;2.55;;
37355;SDS011;48747;50.250;18.848;2022-07-29T03:31:01;4.55;;;2.05;;
37355;SDS011;48747;50.250;18.848;2022-07-29T03:33:04;6.55;;;2.20;;
37355;SDS011;48747;50.250;18.848;2022-07-29T03:35:07;5.30;;;2.10;;
37355;SDS011;48747;50.250;18.848;2022-07-29T03:37:11;6.85;;;2.30;;
37355;SDS011;48747;50.250;18.848;2022-07-29T03:39:19;6.35;;;2.10;;
37355;SDS011;48747;50.250;18.848;2022-07-29T03:41:20;5.50;;;2.25;;
37355;SDS011;48747;50.250;18.848;2022-07-29T03:43:28;4.85;;;1.87;;
37355;SDS011;48747;50.250;18.848;2022-07-29T03:45:34;6.08;;;2.30;;
37355;SDS011;48747;50.250;18.848;2022-07-29T03:47:40;3.25;;;1.90;;
37355;SDS011;48747;50.250;18.848;2022-07-29T03:49:45;7.47;;;2.27;;
37355;SDS011;48747;50.250;18.848;2022-07-29T03:51:56;6.37;;;1.90;;
37355;SDS011;48747;50.250;18.848;2022-07-29T03:53:55;4.95;;;2.30;;
37355;SDS011;48747;50.250;18.848;2022-07-29T03:55:59;5.87;;;2.17;;
37355;SDS011;48747;50.250;18.848;2022-07-29T03:58:03;3.52;;;2.00;;
37355;SDS011;48747;50.250;18.848;2022-07-29T04:00:09;4.65;;;2.30;;
37355;SDS011;48747;50.250;18.848;2022-07-29T04:02:13;5.30;;;2.22;;
37355;SDS011;48747;50.250;18.848;2022-07-29T04:04:16;7.50;;;2.17;;
37355;SDS011;48747;50.250;18.848;2022-07-29T04:06:19;6.40;;;2.20;;
37355;SDS011;48747;50.250;18.848;2022-07-29T04:10:47;4.90;;;1.90;;
37355;SDS011;48747;50.250;18.848;2022-07-29T04:12:49;4.50;;;1.95;;
37355;SDS011;48747;50.250;18.848;2022-07-29T04:14:52;9.35;;;2.90;;
37355;SDS011;48747;50.250;18.848;2022-07-29T04:17:01;5.00;;;2.40;;
37355;SDS011;48747;50.250;18.848;2022-07-29T04:18:59;4.15;;;1.92;;
37355;SDS011;48747;50.250;18.848;2022-07-29T04:21:03;5.35;;;2.02;;
37355;SDS011;48747;50.250;18.848;2022-07-29T04:23:06;7.33;;;2.35;;
37355;SDS011;48747;50.250;18.848;2022-07-29T04:25:09;10.23;;;2.25;;
37355;SDS011;48747;50.250;18.848;2022-07-29T04:27:12;5.37;;;2.10;;
37355;SDS011;48747;50.250;18.848;2022-07-29T04:29:15;5.28;;;2.65;;
37355;SDS011;48747;50.250;18.848;2022-07-29T04:31:18;7.35;;;2.27;;
37355;SDS011;48747;50.250;18.848;2022-07-29T04:33:22;5.25;;;2.52;;
37355;SDS011;48747;50.250;18.848;2022-07-29T04:35:28;5.10;;;2.12;;
37355;SDS011;48747;50.250;18.848;2022-07-29T04:37:32;3.75;;;2.10;;
37355;SDS011;48747;50.250;18.848;2022-07-29T04:39:38;3.77;;;2.17;;
37355;SDS011;48747;50.250;18.848;2022-07-29T04:41:42;7.95;;;2.52;;
37355;SDS011;48747;50.250;18.848;2022-07-29T04:43:46;4.97;;;2.27;;
37355;SDS011;48747;50.250;18.848;2022-07-29T04:45:49;4.37;;;2.15;;
37355;SDS011;48747;50.250;18.848;2022-07-29T04:47:53;6.12;;;2.55;;
37355;SDS011;48747;50.250;18.848;2022-07-29T04:49:58;5.50;;;2.30;;
37355;SDS011;48747;50.250;18.848;2022-07-29T04:52:01;6.35;;;2.37;;
37355;SDS011;48747;50.250;18.848;2022-07-29T04:54:04;4.50;;;2.65;;
37355;SDS011;48747;50.250;18.848;2022-07-29T04:56:07;6.33;;;2.42;;
37355;SDS011;48747;50.250;18.848;2022-07-29T04:58:10;6.25;;;2.40;;
37355;SDS011;48747;50.250;18.848;2022-07-29T05:00:19;5.80;;;2.58;;
37355;SDS011;48747;50.250;18.848;2022-07-29T05:02:18;6.80;;;2.20;;
37355;SDS011;48747;50.250;18.848;2022-07-29T05:04:23;6.45;;;2.45;;
37355;SDS011;48747;50.250;18.848;2022-07-29T05:06:26;6.28;;;2.52;;
37355;SDS011;48747;50.250;18.848;2022-07-29T05:08:29;5.53;;;2.20;;
37355;SDS011;48747;50.250;18.848;2022-07-29T05:10:32;4.58;;;2.50;;
37355;SDS011;48747;50.250;18.848;2022-07-29T05:12:36;8.68;;;2.70;;
37355;SDS011;48747;50.250;18.848;2022-07-29T05:14:46;6.05;;;2.20;;
37355;SDS011;48747;50.250;18.848;2022-07-29T05:16:46;4.53;;;2.50;;
37355;SDS011;48747;50.250;18.848;2022-07-29T05:18:50;4.92;;;2.20;;
37355;SDS011;48747;50.250;18.848;2022-07-29T05:20:53;4.15;;;2.50;;
37355;SDS011;48747;50.250;18.848;2022-07-29T05:22:57;5.47;;;2.20;;
37355;SDS011;48747;50.250;18.848;2022-07-29T05:25:01;6.03;;;2.30;;
37355;SDS011;48747;50.250;18.848;2022-07-29T05:27:07;3.67;;;2.02;;
37355;SDS011;48747;50.250;18.848;2022-07-29T05:29:10;6.03;;;2.27;;
37355;SDS011;48747;50.250;18.848;2022-07-29T05:31:13;6.25;;;2.30;;
37355;SDS011;48747;50.250;18.848;2022-07-29T05:33:16;7.42;;;2.42;;
37355;SDS011;48747;50.250;18.848;2022-07-29T05:35:20;6.78;;;2.70;;
37355;SDS011;48747;50.250;18.848;2022-07-29T05:37:24;6.70;;;3.00;;
37355;SDS011;48747;50.250;18.848;2022-07-29T05:39:27;6.83;;;2.60;;
37355;SDS011;48747;50.250;18.848;2022-07-29T05:41:33;9.60;;;2.85;;
37355;SDS011;48747;50.250;18.848;2022-07-29T05:43:36;6.17;;;2.62;;
37355;SDS011;48747;50.250;18.848;2022-07-29T05:45:39;5.60;;;2.75;;
37355;SDS011;48747;50.250;18.848;2022-07-29T05:47:42;7.37;;;3.08;;
37355;SDS011;48747;50.250;18.848;2022-07-29T05:49:46;5.78;;;2.67;;
37355;SDS011;48747;50.250;18.848;2022-07-29T05:51:50;5.50;;;2.37;;
37355;SDS011;48747;50.250;18.848;2022-07-29T05:53:53;7.40;;;2.47;;
37355;SDS011;48747;50.250;18.848;2022-07-29T05:55:57;7.62;;;2.45;;
37355;SDS011;48747;50.250;18.848;2022-07-29T05:58:02;7.20;;;2.72;;
37355;SDS011;48747;50.250;18.848;2022-07-29T06:00:07;8.05;;;2.70;;
37355;SDS011;48747;50.250;18.848;2022-07-29T06:02:10;5.87;;;2.85;;
37355;SDS011;48747;50.250;18.848;2022-07-29T06:04:15;8.18;;;2.60;;
37355;SDS011;48747;50.250;18.848;2022-07-29T06:06:18;4.60;;;2.58;;
37355;SDS011;48747;50.250;18.848;2022-07-29T06:08:22;7.10;;;2.75;;
37355;SDS011;48747;50.250;18.848;2022-07-29T06:10:27;5.53;;;2.47;;
37355;SDS011;48747;50.250;18.848;2022-07-29T06:12:32;5.42;;;2.80;;
37355;SDS011;48747;50.250;18.848;2022-07-29T06:14:35;4.42;;;2.72;;
37355;SDS011;48747;50.250;18.848;2022-07-29T06:16:39;4.50;;;2.67;;
37355;SDS011;48747;50.250;18.848;2022-07-29T06:18:42;10.25;;;3.00;;
37355;SDS011;48747;50.250;18.848;2022-07-29T06:20:48;7.50;;;3.00;;
37355;SDS011;48747;50.250;18.848;2022-07-29T06:22:55;7.00;;;2.75;;
37355;SDS011;48747;50.250;18.848;2022-07-29T06:25:00;6.25;;;2.60;;
37355;SDS011;48747;50.250;18.848;2022-07-29T06:27:04;7.90;;;2.77;;
37355;SDS011;48747;50.250;18.848;2022-07-29T06:29:08;6.83;;;2.80;;
37355;SDS011;48747;50.250;18.848;2022-07-29T06:31:12;7.72;;;2.83;;
37355;SDS011;48747;50.250;18.848;2022-07-29T06:33:18;6.35;;;2.70;;
37355;SDS011;48747;50.250;18.848;2022-07-29T06:35:24;5.85;;;2.83;;
37355;SDS011;48747;50.250;18.848;2022-07-29T06:37:27;8.88;;;2.98;;
37355;SDS011;48747;50.250;18.848;2022-07-29T06:39:30;7.45;;;3.27;;
37355;SDS011;48747;50.250;18.848;2022-07-29T06:41:33;4.40;;;2.75;;
37355;SDS011;48747;50.250;18.848;2022-07-29T06:43:39;6.90;;;2.80;;
37355;SDS011;48747;50.250;18.848;2022-07-29T06:45:43;8.75;;;2.58;;
37355;SDS011;48747;50.250;18.848;2022-07-29T06:47:51;8.35;;;2.58;;
37355;SDS011;48747;50.250;18.848;2022-07-29T06:49:51;9.78;;;3.15;;
37355;SDS011;48747;50.250;18.848;2022-07-29T06:51:59;8.15;;;3.27;;
37355;SDS011;48747;50.250;18.848;2022-07-29T06:54:00;10.93;;;3.30;;
37355;SDS011;48747;50.250;18.848;2022-07-29T06:56:05;11.78;;;3.17;;
37355;SDS011;48747;50.250;18.848;2022-07-29T06:58:18;7.37;;;2.67;;
37355;SDS011;48747;50.250;18.848;2022-07-29T07:00:20;4.25;;;2.70;;
37355;SDS011;48747;50.250;18.848;2022-07-29T07:02:23;5.87;;;2.85;;
37355;SDS011;48747;50.250;18.848;2022-07-29T07:04:26;4.37;;;2.50;;
37355;SDS011;48747;50.250;18.848;2022-07-29T07:06:29;6.25;;;3.45;;
37355;SDS011;48747;50.250;18.848;2022-07-29T07:08:32;7.67;;;2.67;;
37355;SDS011;48747;50.250;18.848;2022-07-29T07:10:35;8.93;;;2.70;;
37355;SDS011;48747;50.250;18.848;2022-07-29T07:12:54;5.28;;;2.95;;
37355;SDS011;48747;50.250;18.848;2022-07-29T07:14:50;5.17;;;2.55;;
37355;SDS011;48747;50.250;18.848;2022-07-29T07:16:51;6.50;;;3.00;;
37355;SDS011;48747;50.250;18.848;2022-07-29T07:18:55;5.50;;;3.27;;
37355;SDS011;48747;50.250;18.848;2022-07-29T07:20:58;6.08;;;3.55;;
37355;SDS011;48747;50.250;18.848;2022-07-29T07:23:01;6.60;;;3.40;;
37355;SDS011;48747;50.250;18.848;2022-07-29T07:25:04;7.67;;;3.35;;
37355;SDS011;48747;50.250;18.848;2022-07-29T07:27:08;5.17;;;2.72;;
37355;SDS011;48747;50.250;18.848;2022-07-29T07:29:13;6.55;;;3.35;;
37355;SDS011;48747;50.250;18.848;2022-07-29T07:31:16;6.12;;;3.15;;
37355;SDS011;48747;50.250;18.848;2022-07-29T07:33:19;4.92;;;2.80;;
37355;SDS011;48747;50.250;18.848;2022-07-29T07:35:22;7.20;;;2.83;;
37355;SDS011;48747;50.250;18.848;2022-07-29T07:37:26;10.72;;;2.65;;
37355;SDS011;48747;50.250;18.848;2022-07-29T07:39:29;6.47;;;2.85;;
37355;SDS011;48747;50.250;18.848;2022-07-29T07:41:32;7.50;;;3.15;;
37355;SDS011;48747;50.250;18.848;2022-07-29T07:43:35;8.08;;;2.75;;
37355;SDS011;48747;50.250;18.848;2022-07-29T07:45:39;7.28;;;2.95;;
37355;SDS011;48747;50.250;18.848;2022-07-29T07:47:43;6.05;;;3.50;;
37355;SDS011;48747;50.250;18.848;2022-07-29T07:49:46;4.70;;;3.77;;
37355;SDS011;48747;50.250;18.848;2022-07-29T07:51:50;9.25;;;4.70;;
37355;SDS011;48747;50.250;18.848;2022-07-29T07:56:01;6.40;;;4.03;;
37355;SDS011;48747;50.250;18.848;2022-07-29T07:58:06;6.17;;;3.42;;
37355;SDS011;48747;50.250;18.848;2022-07-29T08:00:11;7.17;;;4.20;;
37355;SDS011;48747;50.250;18.848;2022-07-29T08:02:17;5.15;;;4.00;;
37355;SDS011;48747;50.250;18.848;2022-07-29T08:04:20;8.63;;;4.60;;
37355;SDS011;48747;50.250;18.848;2022-07-29T08:06:26;6.70;;;5.12;;
37355;SDS011;48747;50.250;18.848;2022-07-29T08:08:32;10.15;;;5.85;;
37355;SDS011;48747;50.250;18.848;2022-07-29T08:10:42;8.28;;;4.75;;
37355;SDS011;48747;50.250;18.848;2022-07-29T08:12:54;11.68;;;3.83;;
37355;SDS011;48747;50.250;18.848;2022-07-29T08:14:57;6.40;;;3.52;;
37355;SDS011;48747;50.250;18.848;2022-07-29T08:17:05;7.20;;;5.17;;
37355;SDS011;48747;50.250;18.848;2022-07-29T08:19:12;7.92;;;4.85;;
37355;SDS011;48747;50.250;18.848;2022-07-29T08:21:17;5.35;;;3.10;;
37355;SDS011;48747;50.250;18.848;2022-07-29T08:23:20;7.22;;;4.60;;
37355;SDS011;48747;50.250;18.848;2022-07-29T08:25:25;11.80;;;4.80;;
37355;SDS011;48747;50.250;18.848;2022-07-29T08:27:31;9.70;;;3.27;;
37355;SDS011;48747;50.250;18.848;2022-07-29T08:29:34;8.75;;;2.77;;
37355;SDS011;48747;50.250;18.848;2022-07-29T08:31:38;9.03;;;5.47;;
37355;SDS011;48747;50.250;18.848;2022-07-29T08:33:41;5.75;;;4.58;;
37355;SDS011;48747;50.250;18.848;2022-07-29T08:35:44;5.95;;;3.87;;
37355;SDS011;48747;50.250;18.848;2022-07-29T08:37:48;5.00;;;4.50;;
37355;SDS011;48747;50.250;18.848;2022-07-29T08:39:51;7.12;;;4.47;;
37355;SDS011;48747;50.250;18.848;2022-07-29T08:41:54;6.40;;;5.03;;
37355;SDS011;48747;50.250;18.848;2022-07-29T08:43:58;6.12;;;3.87;;
37355;SDS011;48747;50.250;18.848;2022-07-29T08:46:01;9.85;;;4.05;;
37355;SDS011;48747;50.250;18.848;2022-07-29T08:48:07;5.67;;;3.65;;
37355;SDS011;48747;50.250;18.848;2022-07-29T08:50:09;7.75;;;4.28;;
37355;SDS011;48747;50.250;18.848;2022-07-29T08:52:13;6.35;;;4.15;;
37355;SDS011;48747;50.250;18.848;2022-07-29T08:54:18;6.47;;;4.05;;
37355;SDS011;48747;50.250;18.848;2022-07-29T08:56:23;7.60;;;4.05;;
37355;SDS011;48747;50.250;18.848;2022-07-29T08:58:27;9.28;;;3.67;;
37355;SDS011;48747;50.250;18.848;2022-07-29T09:00:33;6.33;;;5.12;;
37355;SDS011;48747;50.250;18.848;2022-07-29T09:02:44;8.10;;;4.58;;
37355;SDS011;48747;50.250;18.848;2022-07-29T09:04:43;6.12;;;5.53;;
37355;SDS011;48747;50.250;18.848;2022-07-29T09:06:49;5.58;;;4.55;;
37355;SDS011;48747;50.250;18.848;2022-07-29T09:08:54;7.42;;;5.15;;
37355;SDS011;48747;50.250;18.848;2022-07-29T09:11:00;7.28;;;6.58;;
37355;SDS011;48747;50.250;18.848;2022-07-29T09:13:04;10.50;;;5.60;;
37355;SDS011;48747;50.250;18.848;2022-07-29T09:15:07;7.75;;;7.03;;
37355;SDS011;48747;50.250;18.848;2022-07-29T09:17:15;7.35;;;5.53;;
37355;SDS011;48747;50.250;18.848;2022-07-29T09:21:33;6.75;;;5.45;;
37355;SDS011;48747;50.250;18.848;2022-07-29T09:26:12;9.38;;;6.95;;
37355;SDS011;48747;50.250;18.848;2022-07-29T09:28:16;6.75;;;6.08;;
37355;SDS011;48747;50.250;18.848;2022-07-29T09:30:19;9.95;;;7.92;;
37355;SDS011;48747;50.250;18.848;2022-07-29T09:32:29;9.60;;;6.85;;
37355;SDS011;48747;50.250;18.848;2022-07-29T09:34:28;9.50;;;8.00;;
37355;SDS011;48747;50.250;18.848;2022-07-29T09:37:07;9.93;;;8.98;;
37355;SDS011;48747;50.250;18.848;2022-07-29T09:38:56;8.88;;;7.97;;
37355;SDS011;48747;50.250;18.848;2022-07-29T09:41:03;9.25;;;8.35;;
37355;SDS011;48747;50.250;18.848;2022-07-29T09:43:14;9.68;;;4.45;;
37355;SDS011;48747;50.250;18.848;2022-07-29T09:45:37;8.90;;;5.22;;
37355;SDS011;48747;50.250;18.848;2022-07-29T09:47:41;9.45;;;6.33;;
37355;SDS011;48747;50.250;18.848;2022-07-29T09:49:54;6.45;;;4.17;;
37355;SDS011;48747;50.250;18.848;2022-07-29T09:52:00;7.75;;;6.97;;
37355;SDS011;48747;50.250;18.848;2022-07-29T09:56:39;6.12;;;4.50;;
37355;SDS011;48747;50.250;18.848;2022-07-29T09:58:44;8.95;;;7.47;;
37355;SDS011;48747;50.250;18.848;2022-07-29T10:00:47;5.08;;;3.92;;
37355;SDS011;48747;50.250;18.848;2022-07-29T10:02:51;8.25;;;6.03;;
37355;SDS011;48747;50.250;18.848;2022-07-29T10:05:00;5.42;;;3.40;;
37355;SDS011;48747;50.250;18.848;2022-07-29T10:07:06;4.95;;;3.60;;
37355;SDS011;48747;50.250;18.848;2022-07-29T10:09:09;5.78;;;4.20;;
37355;SDS011;48747;50.250;18.848;2022-07-29T10:11:13;7.30;;;3.92;;
37355;SDS011;48747;50.250;18.848;2022-07-29T10:13:18;4.83;;;3.77;;
37355;SDS011;48747;50.250;18.848;2022-07-29T10:15:22;5.85;;;4.40;;
37355;SDS011;48747;50.250;18.848;2022-07-29T10:17:26;7.28;;;4.67;;
37355;SDS011;48747;50.250;18.848;2022-07-29T10:19:30;10.32;;;4.65;;
37355;SDS011;48747;50.250;18.848;2022-07-29T10:21:34;6.35;;;4.33;;
37355;SDS011;48747;50.250;18.848;2022-07-29T10:23:39;6.83;;;5.17;;
37355;SDS011;48747;50.250;18.848;2022-07-29T10:25:44;5.62;;;4.05;;
37355;SDS011;48747;50.250;18.848;2022-07-29T10:27:48;4.97;;;3.85;;
37355;SDS011;48747;50.250;18.848;2022-07-29T10:29:55;10.28;;;4.08;;
37355;SDS011;48747;50.250;18.848;2022-07-29T10:37:03;6.67;;;4.70;;
37355;SDS011;48747;50.250;18.848;2022-07-29T10:39:30;7.22;;;3.77;;
37355;SDS011;48747;50.250;18.848;2022-07-29T10:44:22;10.75;;;4.55;;
37355;SDS011;48747;50.250;18.848;2022-07-29T10:46:22;5.75;;;4.30;;
37355;SDS011;48747;50.250;18.848;2022-07-29T10:48:27;9.18;;;4.20;;
37355;SDS011;48747;50.250;18.848;2022-07-29T10:52:53;5.28;;;4.83;;
37355;SDS011;48747;50.250;18.848;2022-07-29T10:54:58;7.37;;;3.55;;
37355;SDS011;48747;50.250;18.848;2022-07-29T11:01:29;5.83;;;3.10;;
37355;SDS011;48747;50.250;18.848;2022-07-29T11:03:42;5.35;;;3.60;;
37355;SDS011;48747;50.250;18.848;2022-07-29T11:05:52;7.03;;;6.42;;
37355;SDS011;48747;50.250;18.848;2022-07-29T11:10:20;7.72;;;4.10;;
37355;SDS011;48747;50.250;18.848;2022-07-29T11:17:04;5.80;;;3.55;;
37355;SDS011;48747;50.250;18.848;2022-07-29T11:21:41;7.35;;;4.50;;
37355;SDS011;48747;50.250;18.848;2022-07-29T11:23:39;5.20;;;3.85;;
37355;SDS011;48747;50.250;18.848;2022-07-29T11:25:44;8.25;;;4.28;;
37355;SDS011;48747;50.250;18.848;2022-07-29T11:27:48;5.33;;;4.15;;
37355;SDS011;48747;50.250;18.848;2022-07-29T11:29:54;6.72;;;4.33;;
37355;SDS011;48747;50.250;18.848;2022-07-29T11:32:14;4.80;;;4.03;;
37355;SDS011;48747;50.250;18.848;2022-07-29T11:34:26;4.95;;;3.62;;
37355;SDS011;48747;50.250;18.848;2022-07-29T11:36:31;8.45;;;3.90;;
37355;SDS011;48747;50.250;18.848;2022-07-29T11:38:34;4.35;;;3.27;;
37355;SDS011;48747;50.250;18.848;2022-07-29T11:40:37;7.75;;;4.20;;
37355;SDS011;48747;50.250;18.848;2022-07-29T11:42:41;7.78;;;4.28;;
37355;SDS011;48747;50.250;18.848;2022-07-29T11:44:54;8.90;;;3.83;;
37355;SDS011;48747;50.250;18.848;2022-07-29T11:47:09;4.87;;;4.00;;
37355;SDS011;48747;50.250;18.848;2022-07-29T11:49:18;5.22;;;3.52;;
37355;SDS011;48747;50.250;18.848;2022-07-29T11:51:21;10.53;;;4.20;;
37355;SDS011;48747;50.250;18.848;2022-07-29T11:53:24;6.08;;;4.30;;
37355;SDS011;48747;50.250;18.848;2022-07-29T11:55:28;6.75;;;3.65;;
37355;SDS011;48747;50.250;18.848;2022-07-29T11:57:33;5.87;;;3.72;;
37355;SDS011;48747;50.250;18.848;2022-07-29T11:59:41;4.17;;;3.75;;
37355;SDS011;48747;50.250;18.848;2022-07-29T12:01:52;6.28;;;3.95;;
37355;SDS011;48747;50.250;18.848;2022-07-29T12:04:06;11.78;;;4.28;;
37355;SDS011;48747;50.250;18.848;2022-07-29T12:06:13;6.28;;;3.95;;
37355;SDS011;48747;50.250;18.848;2022-07-29T12:08:22;7.03;;;3.98;;
37355;SDS011;48747;50.250;18.848;2022-07-29T12:10:23;4.67;;;3.52;;
37355;SDS011;48747;50.250;18.848;2022-07-29T12:12:29;6.05;;;4.10;;
37355;SDS011;48747;50.250;18.848;2022-07-29T12:14:32;5.60;;;3.90;;
37355;SDS011;48747;50.250;18.848;2022-07-29T12:16:41;6.40;;;3.67;;
37355;SDS011;48747;50.250;18.848;2022-07-29T12:18:40;5.80;;;3.70;;
37355;SDS011;48747;50.250;18.848;2022-07-29T12:20:43;5.75;;;3.98;;
37355;SDS011;48747;50.250;18.848;2022-07-29T12:22:47;8.15;;;3.75;;
37355;SDS011;48747;50.250;18.848;2022-07-29T12:24:52;4.08;;;3.70;;
37355;SDS011;48747;50.250;18.848;2022-07-29T12:26:57;6.85;;;3.80;;
37355;SDS011;48747;50.250;18.848;2022-07-29T12:29:03;5.35;;;3.77;;
37355;SDS011;48747;50.250;18.848;2022-07-29T12:31:12;6.30;;;3.90;;
37355;SDS011;48747;50.250;18.848;2022-07-29T12:33:23;5.12;;;3.50;;
37355;SDS011;48747;50.250;18.848;2022-07-29T12:35:31;6.60;;;3.90;;
37355;SDS011;48747;50.250;18.848;2022-07-29T12:37:35;6.97;;;3.60;;
37355;SDS011;48747;50.250;18.848;2022-07-29T12:39:40;4.60;;;3.25;;
37355;SDS011;48747;50.250;18.848;2022-07-29T12:41:44;8.35;;;3.90;;
37355;SDS011;48747;50.250;18.848;2022-07-29T12:43:58;6.55;;;3.80;;
37355;SDS011;48747;50.250;18.848;2022-07-29T12:46:10;7.22;;;3.85;;
37355;SDS011;48747;50.250;18.848;2022-07-29T12:48:31;7.60;;;3.50;;
37355;SDS011;48747;50.250;18.848;2022-07-29T12:50:11;5.90;;;3.85;;
37355;SDS011;48747;50.250;18.848;2022-07-29T12:52:34;6.30;;;3.83;;
37355;SDS011;48747;50.250;18.848;2022-07-29T12:54:37;4.97;;;3.60;;
37355;SDS011;48747;50.250;18.848;2022-07-29T12:56:46;7.00;;;3.70;;
37355;SDS011;48747;50.250;18.848;2022-07-29T12:58:48;9.55;;;3.77;;
37355;SDS011;48747;50.250;18.848;2022-07-29T13:01:03;4.85;;;3.20;;
37355;SDS011;48747;50.250;18.848;2022-07-29T13:03:15;5.15;;;3.27;;
37355;SDS011;48747;50.250;18.848;2022-07-29T13:05:20;5.25;;;3.58;;
37355;SDS011;48747;50.250;18.848;2022-07-29T13:07:24;14.58;;;13.58;;
37355;SDS011;48747;50.250;18.848;2022-07-29T13:09:37;18.73;;;17.40;;
37355;SDS011;48747;50.250;18.848;2022-07-29T13:11:49;19.25;;;17.85;;
37355;SDS011;48747;50.250;18.848;2022-07-29T13:13:55;20.08;;;18.23;;
37355;SDS011;48747;50.250;18.848;2022-07-29T13:16:06;17.12;;;15.50;;